sensor_id;sensor_type;location;lat;lon;timestamp;P1;durP1;ratioP1;P2;durP2;ratioP2
52964;SDS011;42923;53.220;6.528;2024-03-25T00:02:13;9.50;;;3.03;;
52964;SDS011;42923;53.220;6.528;2024-03-25T00:04:38;9.95;;;2.75;;
52964;SDS011;42923;53.220;6.528;2024-03-25T00:07:04;13.15;;;3.50;;
52964;SDS011;42923;53.220;6.528;2024-03-25T00:09:30;10.80;;;3.50;;
52964;SDS011;42923;53.220;6.528;2024-03-25T00:11:55;15.50;;;3.75;;
52964;SDS011;42923;53.220;6.528;2024-03-25T00:14:21;12.95;;;3.28;;
52964;SDS011;42923;53.220;6.528;2024-03-25T00:16:47;13.95;;;3.95;;
52964;SDS011;42923;53.220;6.528;2024-03-25T00:19:14;12.15;;;3.63;;
52964;SDS011;42923;53.220;6.528;2024-03-25T00:21:40;17.80;;;3.93;;
52964;SDS011;42923;53.220;6.528;2024-03-25T00:24:07;12.43;;;3.90;;
52964;SDS011;42923;53.220;6.528;2024-03-25T00:26:33;13.40;;;3.72;;
52964;SDS011;42923;53.220;6.528;2024-03-25T00:28:59;14.15;;;3.78;;
52964;SDS011;42923;53.220;6.528;2024-03-25T00:31:25;15.93;;;4.20;;
52964;SDS011;42923;53.220;6.528;2024-03-25T00:33:50;16.42;;;4.07;;
52964;SDS011;42923;53.220;6.528;2024-03-25T00:36:16;14.88;;;4.10;;
52964;SDS011;42923;53.220;6.528;2024-03-25T00:38:42;13.77;;;4.43;;
52964;SDS011;42923;53.220;6.528;2024-03-25T00:41:09;12.18;;;4.43;;
52964;SDS011;42923;53.220;6.528;2024-03-25T00:43:34;13.68;;;4.53;;
52964;SDS011;42923;53.220;6.528;2024-03-25T00:46:00;14.65;;;4.50;;
52964;SDS011;42923;53.220;6.528;2024-03-25T00:48:26;15.82;;;4.57;;
52964;SDS011;42923;53.220;6.528;2024-03-25T00:50:52;16.08;;;3.97;;
52964;SDS011;42923;53.220;6.528;2024-03-25T00:53:17;15.50;;;4.18;;
52964;SDS011;42923;53.220;6.528;2024-03-25T00:55:43;18.80;;;4.40;;
52964;SDS011;42923;53.220;6.528;2024-03-25T00:58:10;15.97;;;4.50;;
52964;SDS011;42923;53.220;6.528;2024-03-25T01:00:35;19.47;;;4.53;;
52964;SDS011;42923;53.220;6.528;2024-03-25T01:03:01;17.93;;;4.40;;
52964;SDS011;42923;53.220;6.528;2024-03-25T01:05:27;11.17;;;3.57;;
52964;SDS011;42923;53.220;6.528;2024-03-25T01:07:53;15.60;;;3.63;;
52964;SDS011;42923;53.220;6.528;2024-03-25T01:10:18;21.17;;;4.17;;
52964;SDS011;42923;53.220;6.528;2024-03-25T01:12:44;17.27;;;5.30;;
52964;SDS011;42923;53.220;6.528;2024-03-25T01:15:10;26.90;;;5.00;;
52964;SDS011;42923;53.220;6.528;2024-03-25T01:17:36;13.02;;;3.75;;
52964;SDS011;42923;53.220;6.528;2024-03-25T01:20:02;16.23;;;4.18;;
52964;SDS011;42923;53.220;6.528;2024-03-25T01:22:34;16.27;;;4.47;;
52964;SDS011;42923;53.220;6.528;2024-03-25T01:24:59;16.35;;;4.25;;
52964;SDS011;42923;53.220;6.528;2024-03-25T01:27:25;15.65;;;3.60;;
52964;SDS011;42923;53.220;6.528;2024-03-25T01:29:51;10.27;;;2.80;;
52964;SDS011;42923;53.220;6.528;2024-03-25T01:32:17;11.77;;;3.17;;
52964;SDS011;42923;53.220;6.528;2024-03-25T01:34:43;12.18;;;3.50;;
52964;SDS011;42923;53.220;6.528;2024-03-25T01:37:08;13.27;;;3.63;;
52964;SDS011;42923;53.220;6.528;2024-03-25T01:39:34;15.27;;;3.88;;
52964;SDS011;42923;53.220;6.528;2024-03-25T01:42:00;16.88;;;4.47;;
52964;SDS011;42923;53.220;6.528;2024-03-25T01:44:27;15.43;;;3.53;;
52964;SDS011;42923;53.220;6.528;2024-03-25T01:46:52;17.10;;;3.90;;
52964;SDS011;42923;53.220;6.528;2024-03-25T01:49:20;16.17;;;3.67;;
52964;SDS011;42923;53.220;6.528;2024-03-25T01:51:46;14.70;;;3.97;;
52964;SDS011;42923;53.220;6.528;2024-03-25T01:54:12;14.65;;;3.55;;
52964;SDS011;42923;53.220;6.528;2024-03-25T01:56:41;13.85;;;3.92;;
52964;SDS011;42923;53.220;6.528;2024-03-25T01:59:07;12.77;;;4.13;;
52964;SDS011;42923;53.220;6.528;2024-03-25T02:01:33;16.42;;;3.80;;
52964;SDS011;42923;53.220;6.528;2024-03-25T02:03:59;12.00;;;4.03;;
52964;SDS011;42923;53.220;6.528;2024-03-25T02:06:25;11.85;;;3.60;;
52964;SDS011;42923;53.220;6.528;2024-03-25T02:08:53;11.70;;;3.55;;
52964;SDS011;42923;53.220;6.528;2024-03-25T02:11:21;12.48;;;3.63;;
52964;SDS011;42923;53.220;6.528;2024-03-25T02:13:48;14.35;;;3.95;;
52964;SDS011;42923;53.220;6.528;2024-03-25T02:16:15;14.93;;;4.72;;
52964;SDS011;42923;53.220;6.528;2024-03-25T02:18:41;10.43;;;3.90;;
52964;SDS011;42923;53.220;6.528;2024-03-25T02:21:06;8.63;;;3.20;;
52964;SDS011;42923;53.220;6.528;2024-03-25T02:23:32;13.05;;;3.90;;
52964;SDS011;42923;53.220;6.528;2024-03-25T02:25:59;14.40;;;4.03;;
52964;SDS011;42923;53.220;6.528;2024-03-25T02:28:25;15.70;;;3.90;;
52964;SDS011;42923;53.220;6.528;2024-03-25T02:30:51;15.60;;;4.00;;
52964;SDS011;42923;53.220;6.528;2024-03-25T02:33:16;9.02;;;2.95;;
52964;SDS011;42923;53.220;6.528;2024-03-25T02:35:42;11.05;;;3.70;;
52964;SDS011;42923;53.220;6.528;2024-03-25T02:38:09;13.10;;;3.50;;
52964;SDS011;42923;53.220;6.528;2024-03-25T02:40:36;11.23;;;3.45;;
52964;SDS011;42923;53.220;6.528;2024-03-25T02:43:03;12.35;;;3.65;;
52964;SDS011;42923;53.220;6.528;2024-03-25T02:45:29;14.77;;;3.65;;
52964;SDS011;42923;53.220;6.528;2024-03-25T02:47:55;15.57;;;3.97;;
52964;SDS011;42923;53.220;6.528;2024-03-25T02:50:22;12.90;;;3.55;;
52964;SDS011;42923;53.220;6.528;2024-03-25T02:52:48;15.45;;;3.80;;
52964;SDS011;42923;53.220;6.528;2024-03-25T02:55:14;12.88;;;2.92;;
52964;SDS011;42923;53.220;6.528;2024-03-25T02:57:40;13.60;;;3.45;;
52964;SDS011;42923;53.220;6.528;2024-03-25T03:00:05;12.77;;;3.58;;
52964;SDS011;42923;53.220;6.528;2024-03-25T03:02:33;11.35;;;3.50;;
52964;SDS011;42923;53.220;6.528;2024-03-25T03:04:59;13.27;;;3.35;;
52964;SDS011;42923;53.220;6.528;2024-03-25T03:07:26;13.20;;;3.33;;
52964;SDS011;42923;53.220;6.528;2024-03-25T03:09:51;12.45;;;3.30;;
52964;SDS011;42923;53.220;6.528;2024-03-25T03:12:17;13.52;;;3.35;;
52964;SDS011;42923;53.220;6.528;2024-03-25T03:14:43;12.77;;;3.80;;
52964;SDS011;42923;53.220;6.528;2024-03-25T03:17:08;18.43;;;3.90;;
52964;SDS011;42923;53.220;6.528;2024-03-25T03:19:34;10.33;;;3.23;;
52964;SDS011;42923;53.220;6.528;2024-03-25T03:22:01;11.45;;;3.88;;
52964;SDS011;42923;53.220;6.528;2024-03-25T03:24:27;15.23;;;3.35;;
52964;SDS011;42923;53.220;6.528;2024-03-25T03:26:53;18.38;;;3.90;;
52964;SDS011;42923;53.220;6.528;2024-03-25T03:29:19;16.00;;;3.58;;
52964;SDS011;42923;53.220;6.528;2024-03-25T03:31:44;14.65;;;3.65;;
52964;SDS011;42923;53.220;6.528;2024-03-25T03:34:10;12.55;;;3.30;;
52964;SDS011;42923;53.220;6.528;2024-03-25T03:36:36;14.43;;;3.58;;
52964;SDS011;42923;53.220;6.528;2024-03-25T03:39:01;14.63;;;4.15;;
52964;SDS011;42923;53.220;6.528;2024-03-25T03:41:28;14.80;;;3.80;;
52964;SDS011;42923;53.220;6.528;2024-03-25T03:43:54;13.02;;;3.38;;
52964;SDS011;42923;53.220;6.528;2024-03-25T03:46:20;13.35;;;3.75;;
52964;SDS011;42923;53.220;6.528;2024-03-25T03:48:45;10.93;;;3.27;;
52964;SDS011;42923;53.220;6.528;2024-03-25T03:51:11;14.50;;;3.83;;
52964;SDS011;42923;53.220;6.528;2024-03-25T03:53:37;13.63;;;3.17;;
52964;SDS011;42923;53.220;6.528;2024-03-25T03:56:03;14.83;;;3.53;;
52964;SDS011;42923;53.220;6.528;2024-03-25T03:58:30;13.63;;;3.42;;
52964;SDS011;42923;53.220;6.528;2024-03-25T04:00:57;13.98;;;3.22;;
52964;SDS011;42923;53.220;6.528;2024-03-25T04:03:23;13.30;;;3.80;;
52964;SDS011;42923;53.220;6.528;2024-03-25T04:05:49;13.27;;;3.95;;
52964;SDS011;42923;53.220;6.528;2024-03-25T04:08:15;13.82;;;3.65;;
52964;SDS011;42923;53.220;6.528;2024-03-25T04:10:40;21.42;;;4.25;;
52964;SDS011;42923;53.220;6.528;2024-03-25T04:13:07;15.52;;;3.42;;
52964;SDS011;42923;53.220;6.528;2024-03-25T04:15:36;16.08;;;3.80;;
52964;SDS011;42923;53.220;6.528;2024-03-25T04:18:03;15.13;;;3.88;;
52964;SDS011;42923;53.220;6.528;2024-03-25T04:20:29;14.53;;;3.73;;
52964;SDS011;42923;53.220;6.528;2024-03-25T04:23:01;12.02;;;3.67;;
52964;SDS011;42923;53.220;6.528;2024-03-25T04:25:27;17.13;;;3.97;;
52964;SDS011;42923;53.220;6.528;2024-03-25T04:27:52;14.47;;;3.43;;
52964;SDS011;42923;53.220;6.528;2024-03-25T04:30:19;12.02;;;3.53;;
52964;SDS011;42923;53.220;6.528;2024-03-25T04:32:44;13.87;;;4.00;;
52964;SDS011;42923;53.220;6.528;2024-03-25T04:35:10;14.50;;;3.53;;
52964;SDS011;42923;53.220;6.528;2024-03-25T04:37:36;16.15;;;4.38;;
52964;SDS011;42923;53.220;6.528;2024-03-25T04:40:02;14.95;;;3.58;;
52964;SDS011;42923;53.220;6.528;2024-03-25T04:42:28;14.27;;;3.95;;
52964;SDS011;42923;53.220;6.528;2024-03-25T04:44:54;16.85;;;4.00;;
52964;SDS011;42923;53.220;6.528;2024-03-25T04:47:20;14.00;;;3.80;;
52964;SDS011;42923;53.220;6.528;2024-03-25T04:49:45;14.35;;;4.30;;
52964;SDS011;42923;53.220;6.528;2024-03-25T04:52:11;15.55;;;4.38;;
52964;SDS011;42923;53.220;6.528;2024-03-25T04:54:48;16.45;;;4.03;;
52964;SDS011;42923;53.220;6.528;2024-03-25T04:57:14;16.15;;;3.50;;
52964;SDS011;42923;53.220;6.528;2024-03-25T04:59:40;16.38;;;4.28;;
52964;SDS011;42923;53.220;6.528;2024-03-25T05:02:05;17.88;;;4.65;;
52964;SDS011;42923;53.220;6.528;2024-03-25T05:04:31;14.60;;;4.00;;
52964;SDS011;42923;53.220;6.528;2024-03-25T05:06:57;15.70;;;4.07;;
52964;SDS011;42923;53.220;6.528;2024-03-25T05:09:23;15.83;;;4.10;;
52964;SDS011;42923;53.220;6.528;2024-03-25T05:11:49;14.80;;;4.10;;
52964;SDS011;42923;53.220;6.528;2024-03-25T05:14:15;19.50;;;5.23;;
52964;SDS011;42923;53.220;6.528;2024-03-25T05:16:40;16.93;;;4.50;;
52964;SDS011;42923;53.220;6.528;2024-03-25T05:19:06;15.77;;;4.20;;
52964;SDS011;42923;53.220;6.528;2024-03-25T05:21:32;20.93;;;5.43;;
52964;SDS011;42923;53.220;6.528;2024-03-25T05:23:57;14.32;;;4.43;;
52964;SDS011;42923;53.220;6.528;2024-03-25T05:26:23;16.85;;;4.45;;
52964;SDS011;42923;53.220;6.528;2024-03-25T05:28:53;17.92;;;4.28;;
52964;SDS011;42923;53.220;6.528;2024-03-25T05:31:19;15.60;;;4.13;;
52964;SDS011;42923;53.220;6.528;2024-03-25T05:33:45;16.10;;;4.20;;
52964;SDS011;42923;53.220;6.528;2024-03-25T05:36:12;17.83;;;4.43;;
52964;SDS011;42923;53.220;6.528;2024-03-25T05:38:38;18.45;;;4.50;;
52964;SDS011;42923;53.220;6.528;2024-03-25T05:41:04;19.53;;;4.57;;
52964;SDS011;42923;53.220;6.528;2024-03-25T05:43:30;16.90;;;4.17;;
52964;SDS011;42923;53.220;6.528;2024-03-25T05:45:56;15.77;;;4.17;;
52964;SDS011;42923;53.220;6.528;2024-03-25T05:48:24;15.60;;;4.50;;
52964;SDS011;42923;53.220;6.528;2024-03-25T05:51:00;11.23;;;4.05;;
52964;SDS011;42923;53.220;6.528;2024-03-25T05:53:27;15.45;;;4.32;;
52964;SDS011;42923;53.220;6.528;2024-03-25T05:55:53;15.80;;;4.65;;
52964;SDS011;42923;53.220;6.528;2024-03-25T05:58:19;19.63;;;4.45;;
52964;SDS011;42923;53.220;6.528;2024-03-25T06:00:48;15.90;;;4.15;;
52964;SDS011;42923;53.220;6.528;2024-03-25T06:03:15;13.15;;;4.20;;
52964;SDS011;42923;53.220;6.528;2024-03-25T06:05:41;17.17;;;4.68;;
52964;SDS011;42923;53.220;6.528;2024-03-25T06:08:07;17.30;;;3.88;;
52964;SDS011;42923;53.220;6.528;2024-03-25T06:10:41;13.23;;;4.38;;
52964;SDS011;42923;53.220;6.528;2024-03-25T06:13:07;12.25;;;3.53;;
52964;SDS011;42923;53.220;6.528;2024-03-25T06:15:32;18.17;;;4.13;;
52964;SDS011;42923;53.220;6.528;2024-03-25T06:17:58;16.10;;;4.33;;
52964;SDS011;42923;53.220;6.528;2024-03-25T06:20:24;11.30;;;3.50;;
52964;SDS011;42923;53.220;6.528;2024-03-25T06:22:49;13.05;;;3.92;;
52964;SDS011;42923;53.220;6.528;2024-03-25T06:25:16;15.23;;;4.20;;
52964;SDS011;42923;53.220;6.528;2024-03-25T06:27:43;17.27;;;4.07;;
52964;SDS011;42923;53.220;6.528;2024-03-25T06:30:09;12.90;;;3.63;;
52964;SDS011;42923;53.220;6.528;2024-03-25T06:32:54;13.07;;;4.15;;
52964;SDS011;42923;53.220;6.528;2024-03-25T06:35:39;14.00;;;3.97;;
52964;SDS011;42923;53.220;6.528;2024-03-25T06:38:04;12.83;;;3.97;;
52964;SDS011;42923;53.220;6.528;2024-03-25T06:40:31;13.63;;;3.63;;
52964;SDS011;42923;53.220;6.528;2024-03-25T06:42:57;13.30;;;3.90;;
52964;SDS011;42923;53.220;6.528;2024-03-25T06:45:23;10.93;;;3.30;;
52964;SDS011;42923;53.220;6.528;2024-03-25T06:47:48;12.33;;;3.70;;
52964;SDS011;42923;53.220;6.528;2024-03-25T06:50:14;13.57;;;3.67;;
52964;SDS011;42923;53.220;6.528;2024-03-25T06:52:40;13.07;;;3.17;;
52964;SDS011;42923;53.220;6.528;2024-03-25T06:55:05;12.30;;;3.97;;
52964;SDS011;42923;53.220;6.528;2024-03-25T06:57:33;14.20;;;3.35;;
52964;SDS011;42923;53.220;6.528;2024-03-25T06:59:58;10.10;;;3.10;;
52964;SDS011;42923;53.220;6.528;2024-03-25T07:02:24;10.60;;;3.33;;
52964;SDS011;42923;53.220;6.528;2024-03-25T07:04:50;11.20;;;3.20;;
52964;SDS011;42923;53.220;6.528;2024-03-25T07:07:15;9.77;;;3.13;;
52964;SDS011;42923;53.220;6.528;2024-03-25T07:09:41;10.93;;;3.35;;
52964;SDS011;42923;53.220;6.528;2024-03-25T07:12:07;12.70;;;3.25;;
52964;SDS011;42923;53.220;6.528;2024-03-25T07:14:33;12.73;;;3.40;;
52964;SDS011;42923;53.220;6.528;2024-03-25T07:16:59;10.80;;;3.30;;
52964;SDS011;42923;53.220;6.528;2024-03-25T07:19:25;10.90;;;3.03;;
52964;SDS011;42923;53.220;6.528;2024-03-25T07:21:50;10.57;;;3.00;;
52964;SDS011;42923;53.220;6.528;2024-03-25T07:24:17;10.52;;;3.30;;
52964;SDS011;42923;53.220;6.528;2024-03-25T07:26:42;10.00;;;3.15;;
52964;SDS011;42923;53.220;6.528;2024-03-25T07:29:08;8.63;;;2.30;;
52964;SDS011;42923;53.220;6.528;2024-03-25T07:31:34;11.63;;;3.07;;
52964;SDS011;42923;53.220;6.528;2024-03-25T07:33:59;12.70;;;3.17;;
52964;SDS011;42923;53.220;6.528;2024-03-25T07:36:25;10.50;;;2.50;;
52964;SDS011;42923;53.220;6.528;2024-03-25T07:38:51;8.77;;;2.47;;
52964;SDS011;42923;53.220;6.528;2024-03-25T07:41:17;8.93;;;2.72;;
52964;SDS011;42923;53.220;6.528;2024-03-25T07:43:43;12.87;;;3.20;;
52964;SDS011;42923;53.220;6.528;2024-03-25T07:46:09;8.77;;;2.45;;
52964;SDS011;42923;53.220;6.528;2024-03-25T07:48:35;6.80;;;1.90;;
52964;SDS011;42923;53.220;6.528;2024-03-25T07:51:01;7.57;;;2.65;;
52964;SDS011;42923;53.220;6.528;2024-03-25T07:53:27;5.75;;;2.15;;
52964;SDS011;42923;53.220;6.528;2024-03-25T07:55:53;8.70;;;2.50;;
52964;SDS011;42923;53.220;6.528;2024-03-25T07:58:19;10.53;;;3.00;;
52964;SDS011;42923;53.220;6.528;2024-03-25T08:00:45;8.40;;;2.30;;
52964;SDS011;42923;53.220;6.528;2024-03-25T08:03:11;9.03;;;2.70;;
52964;SDS011;42923;53.220;6.528;2024-03-25T08:05:36;8.83;;;2.70;;
52964;SDS011;42923;53.220;6.528;2024-03-25T08:08:02;8.73;;;2.40;;
52964;SDS011;42923;53.220;6.528;2024-03-25T08:10:28;8.20;;;2.10;;
52964;SDS011;42923;53.220;6.528;2024-03-25T08:12:54;6.20;;;2.00;;
52964;SDS011;42923;53.220;6.528;2024-03-25T08:15:20;7.63;;;2.17;;
52964;SDS011;42923;53.220;6.528;2024-03-25T08:17:46;8.33;;;2.13;;
52964;SDS011;42923;53.220;6.528;2024-03-25T08:20:11;7.77;;;2.60;;
52964;SDS011;42923;53.220;6.528;2024-03-25T08:22:38;8.73;;;2.60;;
52964;SDS011;42923;53.220;6.528;2024-03-25T08:25:03;6.37;;;2.17;;
52964;SDS011;42923;53.220;6.528;2024-03-25T08:27:30;8.93;;;2.25;;
52964;SDS011;42923;53.220;6.528;2024-03-25T08:29:56;6.35;;;2.35;;
52964;SDS011;42923;53.220;6.528;2024-03-25T08:32:21;9.65;;;2.53;;
52964;SDS011;42923;53.220;6.528;2024-03-25T08:34:47;7.73;;;2.50;;
52964;SDS011;42923;53.220;6.528;2024-03-25T08:37:12;6.57;;;2.23;;
52964;SDS011;42923;53.220;6.528;2024-03-25T08:39:38;7.70;;;2.50;;
52964;SDS011;42923;53.220;6.528;2024-03-25T08:42:04;7.75;;;2.30;;
52964;SDS011;42923;53.220;6.528;2024-03-25T08:44:30;7.53;;;2.10;;
52964;SDS011;42923;53.220;6.528;2024-03-25T08:46:55;7.97;;;2.23;;
52964;SDS011;42923;53.220;6.528;2024-03-25T08:49:21;9.02;;;2.70;;
52964;SDS011;42923;53.220;6.528;2024-03-25T08:51:47;9.48;;;2.78;;
52964;SDS011;42923;53.220;6.528;2024-03-25T08:54:12;10.90;;;2.60;;
52964;SDS011;42923;53.220;6.528;2024-03-25T08:56:38;8.57;;;2.60;;
52964;SDS011;42923;53.220;6.528;2024-03-25T08:59:04;7.40;;;2.45;;
52964;SDS011;42923;53.220;6.528;2024-03-25T09:01:31;7.22;;;2.35;;
52964;SDS011;42923;53.220;6.528;2024-03-25T09:03:56;8.02;;;2.50;;
52964;SDS011;42923;53.220;6.528;2024-03-25T09:06:22;10.45;;;3.00;;
52964;SDS011;42923;53.220;6.528;2024-03-25T09:08:48;7.03;;;2.75;;
52964;SDS011;42923;53.220;6.528;2024-03-25T09:11:33;10.13;;;2.83;;
52964;SDS011;42923;53.220;6.528;2024-03-25T09:13:58;6.57;;;2.43;;
52964;SDS011;42923;53.220;6.528;2024-03-25T09:16:24;6.70;;;2.43;;
52964;SDS011;42923;53.220;6.528;2024-03-25T09:18:50;8.85;;;2.20;;
52964;SDS011;42923;53.220;6.528;2024-03-25T09:21:15;7.28;;;2.20;;
52964;SDS011;42923;53.220;6.528;2024-03-25T09:23:41;4.40;;;1.90;;
52964;SDS011;42923;53.220;6.528;2024-03-25T09:26:07;7.03;;;2.00;;
52964;SDS011;42923;53.220;6.528;2024-03-25T09:28:32;7.55;;;2.17;;
52964;SDS011;42923;53.220;6.528;2024-03-25T09:30:58;7.07;;;2.33;;
52964;SDS011;42923;53.220;6.528;2024-03-25T09:33:24;5.50;;;1.70;;
52964;SDS011;42923;53.220;6.528;2024-03-25T09:35:50;6.60;;;1.83;;
52964;SDS011;42923;53.220;6.528;2024-03-25T09:38:16;8.10;;;2.65;;
52964;SDS011;42923;53.220;6.528;2024-03-25T09:40:42;7.20;;;2.00;;
52964;SDS011;42923;53.220;6.528;2024-03-25T09:45:57;7.68;;;2.10;;
52964;SDS011;42923;53.220;6.528;2024-03-25T09:48:24;7.78;;;2.30;;
52964;SDS011;42923;53.220;6.528;2024-03-25T09:50:51;10.20;;;3.13;;
52964;SDS011;42923;53.220;6.528;2024-03-25T09:53:18;7.70;;;2.58;;
52964;SDS011;42923;53.220;6.528;2024-03-25T09:55:46;8.63;;;2.50;;
52964;SDS011;42923;53.220;6.528;2024-03-25T09:58:12;7.17;;;2.60;;
52964;SDS011;42923;53.220;6.528;2024-03-25T10:00:40;7.30;;;2.10;;
52964;SDS011;42923;53.220;6.528;2024-03-25T10:03:06;7.93;;;2.22;;
52964;SDS011;42923;53.220;6.528;2024-03-25T10:05:31;6.23;;;1.93;;
52964;SDS011;42923;53.220;6.528;2024-03-25T10:07:58;6.83;;;2.13;;
52964;SDS011;42923;53.220;6.528;2024-03-25T10:10:23;7.27;;;2.33;;
52964;SDS011;42923;53.220;6.528;2024-03-25T10:12:49;9.33;;;2.27;;
52964;SDS011;42923;53.220;6.528;2024-03-25T10:15:18;6.90;;;2.20;;
52964;SDS011;42923;53.220;6.528;2024-03-25T10:17:44;10.70;;;2.92;;
52964;SDS011;42923;53.220;6.528;2024-03-25T10:20:15;7.47;;;2.20;;
52964;SDS011;42923;53.220;6.528;2024-03-25T10:22:45;6.65;;;2.15;;
52964;SDS011;42923;53.220;6.528;2024-03-25T10:27:58;6.95;;;2.63;;
52964;SDS011;42923;53.220;6.528;2024-03-25T10:30:25;11.15;;;2.88;;
52964;SDS011;42923;53.220;6.528;2024-03-25T10:33:01;8.63;;;3.20;;
52964;SDS011;42923;53.220;6.528;2024-03-25T10:35:34;11.88;;;2.95;;
52964;SDS011;42923;53.220;6.528;2024-03-25T10:38:06;12.18;;;3.05;;
52964;SDS011;42923;53.220;6.528;2024-03-25T10:40:34;9.32;;;2.88;;
52964;SDS011;42923;53.220;6.528;2024-03-25T10:43:05;11.70;;;3.28;;
52964;SDS011;42923;53.220;6.528;2024-03-25T10:45:42;13.27;;;3.60;;
52964;SDS011;42923;53.220;6.528;2024-03-25T10:50:55;11.63;;;3.17;;
52964;SDS011;42923;53.220;6.528;2024-03-25T10:53:22;12.15;;;3.22;;
52964;SDS011;42923;53.220;6.528;2024-03-25T10:55:50;8.30;;;2.80;;
52964;SDS011;42923;53.220;6.528;2024-03-25T10:58:18;9.57;;;2.83;;
52964;SDS011;42923;53.220;6.528;2024-03-25T11:00:48;9.65;;;2.30;;
52964;SDS011;42923;53.220;6.528;2024-03-25T11:03:14;10.57;;;2.63;;
52964;SDS011;42923;53.220;6.528;2024-03-25T11:05:40;8.38;;;2.65;;
52964;SDS011;42923;53.220;6.528;2024-03-25T11:08:13;8.40;;;2.70;;
52964;SDS011;42923;53.220;6.528;2024-03-25T11:10:46;11.65;;;2.88;;
52964;SDS011;42923;53.220;6.528;2024-03-25T11:13:12;10.93;;;3.10;;
52964;SDS011;42923;53.220;6.528;2024-03-25T11:15:43;7.80;;;2.42;;
52964;SDS011;42923;53.220;6.528;2024-03-25T11:18:14;11.45;;;3.13;;
52964;SDS011;42923;53.220;6.528;2024-03-25T11:20:41;10.35;;;2.90;;
52964;SDS011;42923;53.220;6.528;2024-03-25T11:23:10;11.37;;;3.07;;
52964;SDS011;42923;53.220;6.528;2024-03-25T11:25:37;8.18;;;2.38;;
52964;SDS011;42923;53.220;6.528;2024-03-25T11:28:04;9.18;;;2.70;;
52964;SDS011;42923;53.220;6.528;2024-03-25T11:30:30;8.45;;;2.67;;
52964;SDS011;42923;53.220;6.528;2024-03-25T11:32:57;8.07;;;2.40;;
52964;SDS011;42923;53.220;6.528;2024-03-25T11:35:24;6.10;;;2.15;;
52964;SDS011;42923;53.220;6.528;2024-03-25T11:37:50;14.27;;;2.85;;
52964;SDS011;42923;53.220;6.528;2024-03-25T11:40:17;8.70;;;3.05;;
52964;SDS011;42923;53.220;6.528;2024-03-25T11:42:44;9.63;;;2.67;;
52964;SDS011;42923;53.220;6.528;2024-03-25T11:45:17;9.35;;;2.60;;
52964;SDS011;42923;53.220;6.528;2024-03-25T11:47:48;8.55;;;2.20;;
52964;SDS011;42923;53.220;6.528;2024-03-25T11:50:18;8.60;;;2.83;;
52964;SDS011;42923;53.220;6.528;2024-03-25T11:52:45;7.53;;;2.60;;
52964;SDS011;42923;53.220;6.528;2024-03-25T11:55:15;4.53;;;2.03;;
52964;SDS011;42923;53.220;6.528;2024-03-25T11:57:42;8.68;;;2.70;;
52964;SDS011;42923;53.220;6.528;2024-03-25T12:00:08;9.77;;;2.88;;
52964;SDS011;42923;53.220;6.528;2024-03-25T12:02:44;7.87;;;2.23;;
52964;SDS011;42923;53.220;6.528;2024-03-25T12:05:12;6.63;;;2.47;;
52964;SDS011;42923;53.220;6.528;2024-03-25T12:07:38;10.80;;;3.13;;
52964;SDS011;42923;53.220;6.528;2024-03-25T12:10:04;10.47;;;2.70;;
52964;SDS011;42923;53.220;6.528;2024-03-25T12:12:48;8.80;;;2.08;;
52964;SDS011;42923;53.220;6.528;2024-03-25T12:15:19;8.05;;;2.47;;
52964;SDS011;42923;53.220;6.528;2024-03-25T12:17:45;8.23;;;2.45;;
52964;SDS011;42923;53.220;6.528;2024-03-25T12:20:11;11.50;;;2.92;;
52964;SDS011;42923;53.220;6.528;2024-03-25T12:22:41;7.60;;;2.25;;
52964;SDS011;42923;53.220;6.528;2024-03-25T12:25:07;7.72;;;2.13;;
52964;SDS011;42923;53.220;6.528;2024-03-25T12:27:36;13.05;;;3.20;;
52964;SDS011;42923;53.220;6.528;2024-03-25T12:30:06;11.45;;;3.22;;
52964;SDS011;42923;53.220;6.528;2024-03-25T12:32:43;12.48;;;3.35;;
52964;SDS011;42923;53.220;6.528;2024-03-25T12:37:45;11.68;;;2.83;;
52964;SDS011;42923;53.220;6.528;2024-03-25T12:40:28;10.23;;;3.38;;
52964;SDS011;42923;53.220;6.528;2024-03-25T12:42:55;8.88;;;2.75;;
52964;SDS011;42923;53.220;6.528;2024-03-25T12:45:21;9.47;;;2.73;;
52964;SDS011;42923;53.220;6.528;2024-03-25T12:47:48;9.48;;;2.70;;
52964;SDS011;42923;53.220;6.528;2024-03-25T12:50:14;9.52;;;2.67;;
52964;SDS011;42923;53.220;6.528;2024-03-25T12:52:40;9.03;;;2.73;;
52964;SDS011;42923;53.220;6.528;2024-03-25T12:55:06;10.18;;;3.22;;
52964;SDS011;42923;53.220;6.528;2024-03-25T12:57:32;10.15;;;2.92;;
52964;SDS011;42923;53.220;6.528;2024-03-25T12:59:57;9.70;;;3.03;;
52964;SDS011;42923;53.220;6.528;2024-03-25T13:02:23;6.73;;;2.70;;
52964;SDS011;42923;53.220;6.528;2024-03-25T13:04:49;8.35;;;2.40;;
52964;SDS011;42923;53.220;6.528;2024-03-25T13:07:15;7.87;;;2.60;;
52964;SDS011;42923;53.220;6.528;2024-03-25T13:09:41;8.30;;;2.65;;
52964;SDS011;42923;53.220;6.528;2024-03-25T13:12:07;7.00;;;2.50;;
52964;SDS011;42923;53.220;6.528;2024-03-25T13:14:32;9.43;;;2.90;;
52964;SDS011;42923;53.220;6.528;2024-03-25T13:16:58;13.50;;;3.08;;
52964;SDS011;42923;53.220;6.528;2024-03-25T13:19:24;10.95;;;2.88;;
52964;SDS011;42923;53.220;6.528;2024-03-25T13:21:53;8.30;;;2.75;;
52964;SDS011;42923;53.220;6.528;2024-03-25T13:24:20;7.95;;;3.20;;
52964;SDS011;42923;53.220;6.528;2024-03-25T13:26:46;9.05;;;2.95;;
52964;SDS011;42923;53.220;6.528;2024-03-25T13:29:12;7.67;;;2.50;;
52964;SDS011;42923;53.220;6.528;2024-03-25T13:31:37;6.23;;;2.30;;
52964;SDS011;42923;53.220;6.528;2024-03-25T13:34:03;10.73;;;3.00;;
52964;SDS011;42923;53.220;6.528;2024-03-25T13:36:29;8.30;;;3.30;;
52964;SDS011;42923;53.220;6.528;2024-03-25T13:38:56;10.65;;;2.85;;
52964;SDS011;42923;53.220;6.528;2024-03-25T13:41:22;9.40;;;2.90;;
52964;SDS011;42923;53.220;6.528;2024-03-25T13:43:49;10.47;;;3.27;;
52964;SDS011;42923;53.220;6.528;2024-03-25T13:46:15;13.20;;;3.80;;
52964;SDS011;42923;53.220;6.528;2024-03-25T13:48:41;11.90;;;3.00;;
52964;SDS011;42923;53.220;6.528;2024-03-25T13:51:07;9.13;;;2.97;;
52964;SDS011;42923;53.220;6.528;2024-03-25T13:53:33;10.32;;;3.00;;
52964;SDS011;42923;53.220;6.528;2024-03-25T13:55:59;10.90;;;3.17;;
52964;SDS011;42923;53.220;6.528;2024-03-25T13:58:25;8.80;;;2.63;;
52964;SDS011;42923;53.220;6.528;2024-03-25T14:00:51;8.23;;;2.75;;
52964;SDS011;42923;53.220;6.528;2024-03-25T14:03:17;11.20;;;3.38;;
52964;SDS011;42923;53.220;6.528;2024-03-25T14:05:44;11.27;;;2.58;;
52964;SDS011;42923;53.220;6.528;2024-03-25T14:08:09;9.98;;;3.40;;
52964;SDS011;42923;53.220;6.528;2024-03-25T14:10:35;10.40;;;2.97;;
52964;SDS011;42923;53.220;6.528;2024-03-25T14:13:01;10.27;;;2.88;;
52964;SDS011;42923;53.220;6.528;2024-03-25T14:15:28;9.02;;;2.65;;
52964;SDS011;42923;53.220;6.528;2024-03-25T14:17:54;15.15;;;3.42;;
52964;SDS011;42923;53.220;6.528;2024-03-25T14:20:20;8.13;;;2.90;;
52964;SDS011;42923;53.220;6.528;2024-03-25T14:22:45;10.03;;;2.90;;
52964;SDS011;42923;53.220;6.528;2024-03-25T14:25:11;14.35;;;3.13;;
52964;SDS011;42923;53.220;6.528;2024-03-25T14:27:37;9.57;;;2.90;;
52964;SDS011;42923;53.220;6.528;2024-03-25T14:30:03;11.67;;;2.90;;
52964;SDS011;42923;53.220;6.528;2024-03-25T14:32:29;9.93;;;2.85;;
52964;SDS011;42923;53.220;6.528;2024-03-25T14:34:54;11.73;;;3.07;;
52964;SDS011;42923;53.220;6.528;2024-03-25T14:37:21;12.00;;;3.30;;
52964;SDS011;42923;53.220;6.528;2024-03-25T14:39:47;10.15;;;3.17;;
52964;SDS011;42923;53.220;6.528;2024-03-25T14:42:13;10.43;;;3.05;;
52964;SDS011;42923;53.220;6.528;2024-03-25T14:44:38;10.23;;;2.80;;
52964;SDS011;42923;53.220;6.528;2024-03-25T14:47:04;11.32;;;3.20;;